createdAt,value
2022-08-10T00:00:14.163Z,0.00
2022-08-10T00:01:14.502Z,0.00
2022-08-10T00:02:14.750Z,0.00
2022-08-10T00:03:15.047Z,0.00
2022-08-10T00:04:21.049Z,0.00
2022-08-10T00:05:16.643Z,0.00
2022-08-10T00:06:15.830Z,0.00
2022-08-10T00:07:16.144Z,0.00
2022-08-10T00:08:23.628Z,0.00
2022-08-10T00:09:17.639Z,0.00
2022-08-10T00:10:16.976Z,0.00
2022-08-10T00:11:17.286Z,0.00
2022-08-10T00:12:17.554Z,0.00
2022-08-10T00:13:17.851Z,0.00
2022-08-10T00:14:18.164Z,0.00
2022-08-10T00:15:52.919Z,0.00
2022-08-10T00:16:19.724Z,0.00
2022-08-10T00:17:19.046Z,0.00
2022-08-10T00:18:34.865Z,0.00
2022-08-10T00:19:20.586Z,0.00
2022-08-10T00:20:19.864Z,0.00
2022-08-10T00:21:20.123Z,0.00
2022-08-10T00:22:20.426Z,0.00
2022-08-10T00:23:20.733Z,0.00
2022-08-10T00:24:21.039Z,0.00
2022-08-10T00:25:21.375Z,0.00
2022-08-10T00:26:22.050Z,0.00
2022-08-10T00:27:52.144Z,0.00
2022-08-10T00:28:23.171Z,0.00
2022-08-10T00:29:22.500Z,0.00
2022-08-10T00:30:22.818Z,0.00
2022-08-10T00:31:23.045Z,0.00
2022-08-10T00:32:23.335Z,0.00
2022-08-10T00:33:23.634Z,0.00
2022-08-10T00:34:23.950Z,0.00
2022-08-10T00:35:24.254Z,0.00
2022-08-10T00:36:24.538Z,0.00
2022-08-10T00:37:24.800Z,0.00
2022-08-10T00:38:25.112Z,0.00
2022-08-10T00:39:26.034Z,0.00
2022-08-10T00:40:35.183Z,0.00
2022-08-10T00:41:26.956Z,0.00
2022-08-10T00:42:26.353Z,0.00
2022-08-10T00:43:26.607Z,0.00
2022-08-10T00:44:26.918Z,0.00
2022-08-10T00:45:27.208Z,0.00
2022-08-10T00:46:27.478Z,0.00
2022-08-10T00:47:36.765Z,0.00
2022-08-10T00:48:29.046Z,0.00
2022-08-10T00:49:28.348Z,0.00
2022-08-10T00:50:28.683Z,0.00
2022-08-10T00:51:47.921Z,0.00
2022-08-10T00:52:30.208Z,0.00
2022-08-10T00:53:29.540Z,0.00
2022-08-10T00:54:29.786Z,0.00
2022-08-10T00:55:30.086Z,0.00
2022-08-10T00:57:10.068Z,0.00
2022-08-10T00:57:31.661Z,0.00
2022-08-10T00:58:30.957Z,0.00
2022-08-10T00:59:31.258Z,0.00
2022-08-10T01:00:31.568Z,0.00
2022-08-10T01:02:09.786Z,0.00
2022-08-10T01:02:33.454Z,0.00
2022-08-10T01:04:36.206Z,0.00
2022-08-10T01:04:58.687Z,0.00
2022-08-10T01:05:33.971Z,0.00
2022-08-10T01:06:34.271Z,0.00
2022-08-10T01:07:34.423Z,0.00
2022-08-10T01:08:33.858Z,0.00
2022-08-10T01:09:34.160Z,0.00
2022-08-10T01:10:34.479Z,0.00
2022-08-10T01:12:39.042Z,0.00
2022-08-10T01:12:40.981Z,0.00
2022-08-10T01:13:36.310Z,0.00
2022-08-10T01:14:35.611Z,0.00
2022-08-10T01:15:35.939Z,0.00
2022-08-10T01:16:36.202Z,0.00
2022-08-10T01:17:50.844Z,0.00
2022-08-10T01:18:38.175Z,0.00
2022-08-10T01:19:37.000Z,0.00
2022-08-10T01:20:37.324Z,0.00
2022-08-10T01:21:37.602Z,0.00
2022-08-10T01:22:37.863Z,0.00
2022-08-10T01:23:38.171Z,0.00
2022-08-10T01:24:38.474Z,0.00
2022-08-10T01:26:12.460Z,0.00
2022-08-10T01:26:40.694Z,0.00
2022-08-10T01:27:39.369Z,0.00
2022-08-10T01:28:39.684Z,0.00
2022-08-10T01:29:39.972Z,0.00
2022-08-10T01:30:40.289Z,0.00
2022-08-10T01:31:40.539Z,0.00
2022-08-10T01:32:40.845Z,0.00
2022-08-10T01:34:01.807Z,0.00
2022-08-10T01:34:42.418Z,0.00
2022-08-10T01:35:41.743Z,0.00
2022-08-10T01:36:42.001Z,0.00
2022-08-10T01:37:42.305Z,0.00
2022-08-10T01:38:43.554Z,0.00
2022-08-10T01:39:42.975Z,0.00
2022-08-10T01:40:43.238Z,0.00
2022-08-10T01:41:46.791Z,0.00
2022-08-10T01:42:43.781Z,0.00
2022-08-10T01:43:44.101Z,0.00
2022-08-10T01:44:44.364Z,0.00
2022-08-10T01:45:46.011Z,0.00
2022-08-10T01:46:44.986Z,0.00
2022-08-10T01:47:45.256Z,0.00
2022-08-10T01:48:45.554Z,0.00
2022-08-10T01:49:45.862Z,0.00
2022-08-10T01:50:59.141Z,0.00
2022-08-10T01:51:47.374Z,0.00
2022-08-10T01:52:46.696Z,0.00
2022-08-10T01:53:47.007Z,0.00
2022-08-10T01:54:47.308Z,0.00
2022-08-10T01:55:47.616Z,0.00
2022-08-10T01:56:47.893Z,0.00
2022-08-10T01:57:48.159Z,0.00
2022-08-10T01:58:48.453Z,0.00
2022-08-10T01:59:58.723Z,0.00
2022-08-10T02:00:50.052Z,0.00
2022-08-10T02:01:49.262Z,0.00
2022-08-10T02:02:49.564Z,0.00
2022-08-10T02:04:05.367Z,0.00
2022-08-10T02:04:51.111Z,0.00
2022-08-10T02:05:50.466Z,0.00
2022-08-10T02:06:50.736Z,0.00
2022-08-10T02:07:51.034Z,0.00
2022-08-10T02:09:04.990Z,0.00
2022-08-10T02:09:52.594Z,0.00
2022-08-10T02:10:51.913Z,0.00
2022-08-10T02:12:06.036Z,0.00
2022-08-10T02:12:53.478Z,0.00
2022-08-10T02:13:52.798Z,0.00
2022-08-10T02:14:53.109Z,0.00
2022-08-10T02:16:02.315Z,0.00
2022-08-10T02:16:54.665Z,0.00
2022-08-10T02:17:57.965Z,0.00
2022-08-10T02:18:55.230Z,0.00
2022-08-10T02:19:54.558Z,0.00
2022-08-10T02:20:54.866Z,0.00
2022-08-10T02:22:15.385Z,0.00
2022-08-10T02:22:56.398Z,0.00
2022-08-10T02:23:59.712Z,0.00
2022-08-10T02:24:55.982Z,0.00
2022-08-10T02:25:56.271Z,0.00
2022-08-10T02:26:59.817Z,0.00
2022-08-10T02:27:56.816Z,0.00
2022-08-10T02:28:57.116Z,0.00
2022-08-10T02:29:57.430Z,0.00
2022-08-10T02:30:57.751Z,0.00
2022-08-10T02:31:58.020Z,0.00
2022-08-10T02:32:58.279Z,0.00
2022-08-10T02:33:59.460Z,0.00
2022-08-10T02:34:58.870Z,0.00
2022-08-10T02:35:59.178Z,0.00
2022-08-10T02:36:59.472Z,0.00
2022-08-10T02:37:59.741Z,0.00
2022-08-10T02:39:00.924Z,0.00
2022-08-10T02:40:00.350Z,0.00
2022-08-10T02:45:01.045Z,0.00
2022-08-10T02:45:11.044Z,0.00
2022-08-10T02:45:18.089Z,0.00
2022-08-10T02:45:20.853Z,0.00
2022-08-10T02:45:29.478Z,0.00
2022-08-10T02:46:03.104Z,0.00
2022-08-10T02:47:02.301Z,0.00
2022-08-10T02:48:02.601Z,0.00
2022-08-10T02:49:02.917Z,0.00
2022-08-10T02:50:03.184Z,0.00
2022-08-10T02:51:03.486Z,0.00
2022-08-10T02:52:06.813Z,0.00
2022-08-10T02:53:05.043Z,0.00
2022-08-10T02:54:04.358Z,0.00
2022-08-10T02:55:17.029Z,0.00
2022-08-10T02:56:05.916Z,0.00
2022-08-10T02:57:05.244Z,0.00
2022-08-10T02:58:17.265Z,0.00
2022-08-10T02:59:06.770Z,0.00
2022-08-10T03:00:06.093Z,0.00
2022-08-10T03:01:06.470Z,0.00
2022-08-10T03:02:06.723Z,0.00
2022-08-10T03:03:07.016Z,0.00
2022-08-10T03:04:07.299Z,0.00
2022-08-10T03:05:07.605Z,0.00
2022-08-10T03:06:07.919Z,0.00
2022-08-10T03:07:08.213Z,0.00
2022-08-10T03:08:08.499Z,0.00
2022-08-10T03:09:08.794Z,0.00
2022-08-10T03:10:13.145Z,0.00
2022-08-10T03:11:10.375Z,0.00
2022-08-10T03:12:35.261Z,0.00
2022-08-10T03:13:10.934Z,0.00
2022-08-10T03:14:10.241Z,0.00
2022-08-10T03:15:10.556Z,0.00
2022-08-10T03:16:11.816Z,0.00
2022-08-10T03:17:11.145Z,0.00
2022-08-10T03:18:11.435Z,0.00
2022-08-10T03:20:34.133Z,0.00
2022-08-10T03:20:37.219Z,0.00
2022-08-10T03:21:13.285Z,0.00
2022-08-10T03:22:12.597Z,0.00
2022-08-10T03:23:12.904Z,0.00
2022-08-10T03:24:32.791Z,0.00
2022-08-10T03:25:14.465Z,0.00
2022-08-10T03:26:16.513Z,0.00
2022-08-10T03:27:14.013Z,0.00
2022-08-10T03:28:20.683Z,0.00
2022-08-10T03:29:15.566Z,0.00
2022-08-10T03:30:28.496Z,0.00
2022-08-10T03:31:16.156Z,0.00
2022-08-10T03:32:15.463Z,0.00
2022-08-10T03:33:15.760Z,4.00
2022-08-10T03:34:20.130Z,4.00
2022-08-10T03:35:17.315Z,0.00
2022-08-10T03:36:40.019Z,4.00
2022-08-10T03:37:17.893Z,4.00
2022-08-10T03:38:17.203Z,0.00
2022-08-10T03:39:17.563Z,4.00
2022-08-10T03:40:17.795Z,4.00
2022-08-10T03:41:18.094Z,8.00
2022-08-10T03:42:18.406Z,4.00
2022-08-10T03:43:18.693Z,8.00
2022-08-10T03:44:18.995Z,8.00
2022-08-10T03:45:19.294Z,8.00
2022-08-10T03:46:19.626Z,8.00
2022-08-10T03:47:19.879Z,12.00
2022-08-10T03:48:20.185Z,16.00
2022-08-10T03:49:20.522Z,16.00
2022-08-10T03:50:45.710Z,20.00
2022-08-10T03:51:22.068Z,20.00
2022-08-10T03:52:21.398Z,24.00
2022-08-10T03:53:25.178Z,28.00
2022-08-10T03:54:22.988Z,32.00
2022-08-10T03:56:27.468Z,40.00
2022-08-10T03:56:28.672Z,36.00
2022-08-10T03:57:23.918Z,44.00
2022-08-10T03:58:23.247Z,56.00
2022-08-10T03:59:23.564Z,60.00
2022-08-10T04:00:23.871Z,64.00
2022-08-10T04:02:45.594Z,72.00
2022-08-10T04:02:45.980Z,84.00
2022-08-10T04:03:25.767Z,92.00
2022-08-10T04:04:25.775Z,100.00
2022-08-10T04:05:26.413Z,112.00
2022-08-10T04:06:26.750Z,124.00
2022-08-10T04:07:25.975Z,132.00
2022-08-10T04:08:26.334Z,144.00
2022-08-10T04:09:42.642Z,156.00
2022-08-10T04:10:27.889Z,172.00
2022-08-10T04:11:27.141Z,188.00
2022-08-10T04:12:27.481Z,200.00
2022-08-10T04:13:27.649Z,220.00
2022-08-10T04:14:38.150Z,240.00
2022-08-10T04:15:29.279Z,260.00
2022-08-10T04:16:28.539Z,280.00
2022-08-10T04:18:03.208Z,308.00
2022-08-10T04:18:30.174Z,328.00
2022-08-10T04:19:29.382Z,356.00
2022-08-10T04:20:34.302Z,380.00
2022-08-10T04:21:31.005Z,408.00
2022-08-10T04:22:30.249Z,436.00
2022-08-10T04:23:30.567Z,468.00
2022-08-10T04:24:33.055Z,496.00
2022-08-10T04:25:31.155Z,532.00
2022-08-10T04:26:31.438Z,568.00
2022-08-10T04:27:31.638Z,600.00
2022-08-10T04:28:31.968Z,632.00
2022-08-10T04:29:32.288Z,668.00
2022-08-10T04:30:32.620Z,700.00
2022-08-10T04:31:32.987Z,736.00
2022-08-10T04:32:33.209Z,772.00
2022-08-10T04:33:33.520Z,804.00
2022-08-10T04:34:33.872Z,840.00
2022-08-10T04:35:34.150Z,872.00
2022-08-10T04:36:34.382Z,900.00
2022-08-10T04:37:34.585Z,932.00
2022-08-10T04:38:34.914Z,964.00
2022-08-10T04:39:35.293Z,1000.00
2022-08-10T04:40:35.520Z,1040.00
2022-08-10T04:41:35.742Z,1084.00
2022-08-10T04:42:36.185Z,1132.00
2022-08-10T04:43:36.218Z,1164.00
2022-08-10T04:44:36.435Z,1212.00
2022-08-10T04:45:50.421Z,1264.00
2022-08-10T04:46:55.243Z,1316.00
2022-08-10T04:47:57.282Z,1368.00
2022-08-10T04:48:42.575Z,1420.00
2022-08-10T04:49:56.306Z,1472.00
2022-08-10T04:50:39.152Z,1524.00
2022-08-10T04:51:38.436Z,1580.00
2022-08-10T04:52:38.653Z,1636.00
2022-08-10T04:54:03.956Z,1700.00
2022-08-10T04:54:40.305Z,1752.00
2022-08-10T04:55:39.585Z,1800.00
2022-08-10T04:56:39.980Z,1856.00
2022-08-10T04:57:40.230Z,1920.00
2022-08-10T04:58:40.553Z,2024.00
2022-08-10T04:59:40.918Z,2372.00
2022-08-10T05:00:41.199Z,2320.00
2022-08-10T05:02:21.591Z,2160.00
2022-08-10T05:02:43.012Z,2196.00
2022-08-10T05:04:33.826Z,2240.00
2022-08-10T05:04:43.392Z,2284.00
2022-08-10T05:05:42.678Z,2328.00
2022-08-10T05:06:43.047Z,2376.00
2022-08-10T05:07:53.746Z,2420.00
2022-08-10T05:08:44.584Z,2492.00
2022-08-10T05:10:01.516Z,2528.00
2022-08-10T05:10:45.193Z,2536.00
2022-08-10T05:11:44.475Z,2568.00
2022-08-10T05:12:44.688Z,2588.00
2022-08-10T05:13:45.023Z,2600.00
2022-08-10T05:14:45.338Z,2620.00
2022-08-10T05:15:45.608Z,2732.00
2022-08-10T05:16:45.818Z,3016.00
2022-08-10T05:18:04.683Z,3672.00
2022-08-10T05:18:47.306Z,5500.00
2022-08-10T05:20:04.455Z,6416.00
2022-08-10T05:20:50.188Z,10340.00
2022-08-10T05:22:03.025Z,13312.00
2022-08-10T05:22:48.459Z,13728.00
2022-08-10T05:23:47.719Z,14272.00
2022-08-10T05:24:48.080Z,14592.00
2022-08-10T05:25:48.275Z,14624.00
2022-08-10T05:27:00.242Z,14688.00
2022-08-10T05:27:51.726Z,14912.00
2022-08-10T05:28:49.190Z,15584.00
2022-08-10T05:30:02.607Z,15776.00
2022-08-10T05:30:50.706Z,16064.00
2022-08-10T05:31:49.986Z,16352.00
2022-08-10T05:32:59.234Z,16608.00
2022-08-10T05:33:51.481Z,15360.00
2022-08-10T05:34:50.742Z,16352.00
2022-08-10T05:35:55.173Z,17408.00
2022-08-10T05:36:52.365Z,17664.00
2022-08-10T05:38:12.664Z,17792.00
2022-08-10T05:38:52.899Z,17696.00
2022-08-10T05:39:52.230Z,16832.00
2022-08-10T05:40:52.433Z,16256.00
2022-08-10T05:41:53.085Z,17408.00
2022-08-10T05:42:52.992Z,19008.00
2022-08-10T05:43:53.243Z,19488.00
2022-08-10T05:44:53.482Z,18464.00
2022-08-10T05:46:18.842Z,13192.00
2022-08-10T05:46:55.060Z,13328.00
2022-08-10T05:48:54.899Z,10460.00
2022-08-10T05:49:00.556Z,13308.00
2022-08-10T05:49:55.964Z,12108.00
2022-08-10T05:50:55.224Z,15136.00
2022-08-10T05:51:55.496Z,16128.00
2022-08-10T05:52:55.695Z,19776.00
2022-08-10T05:54:03.063Z,21280.00
2022-08-10T05:55:00.941Z,21440.00
2022-08-10T05:55:57.571Z,21440.00
2022-08-10T05:56:58.349Z,21504.00
2022-08-10T05:57:57.095Z,21632.00
2022-08-10T05:58:57.415Z,20896.00
2022-08-10T06:00:33.383Z,20512.00
2022-08-10T06:00:59.024Z,18656.00
2022-08-10T06:02:30.857Z,18848.00
2022-08-10T06:02:59.569Z,18848.00
2022-08-10T06:03:58.842Z,22240.00
2022-08-10T06:04:59.101Z,22080.00
2022-08-10T06:05:59.435Z,22112.00
2022-08-10T06:06:59.718Z,22112.00
2022-08-10T06:07:59.928Z,22144.00
2022-08-10T06:09:00.249Z,22176.00
2022-08-10T06:10:00.603Z,22112.00
2022-08-10T06:12:23.984Z,22208.00
2022-08-10T06:12:23.984Z,22336.00
2022-08-10T06:13:02.759Z,22464.00
2022-08-10T06:14:13.016Z,22528.00
2022-08-10T06:15:05.970Z,22656.00
2022-08-10T06:16:03.286Z,22816.00
2022-08-10T06:17:02.610Z,22976.00
2022-08-10T06:18:02.831Z,22944.00
2022-08-10T06:19:03.196Z,23104.00
2022-08-10T06:20:03.398Z,23168.00
2022-08-10T06:21:03.691Z,23296.00
2022-08-10T06:22:03.918Z,20832.00
2022-08-10T06:23:04.146Z,22656.00
2022-08-10T06:24:04.558Z,23360.00
2022-08-10T06:26:11.843Z,18144.00
2022-08-10T06:27:06.422Z,21344.00
2022-08-10T06:28:05.573Z,23712.00
2022-08-10T06:29:05.876Z,23712.00
2022-08-10T06:30:19.862Z,17696.00
2022-08-10T06:31:07.440Z,22720.00
2022-08-10T06:32:06.765Z,23616.00
2022-08-10T06:33:07.076Z,23744.00
2022-08-10T06:34:07.303Z,23872.00
2022-08-10T06:35:07.705Z,24000.00
2022-08-10T06:36:07.957Z,21920.00
2022-08-10T06:37:08.224Z,24064.00
2022-08-10T06:38:08.718Z,22176.00
2022-08-10T06:39:30.247Z,24032.00
2022-08-10T06:40:10.134Z,23968.00
2022-08-10T06:41:09.435Z,23872.00
2022-08-10T06:42:15.772Z,23840.00
2022-08-10T06:43:11.001Z,22848.00
2022-08-10T06:44:10.317Z,22848.00
2022-08-10T06:45:10.566Z,23744.00
2022-08-10T06:46:10.774Z,23936.00
2022-08-10T06:47:11.050Z,24224.00
2022-08-10T06:48:11.352Z,22336.00
2022-08-10T06:49:11.570Z,22912.00
2022-08-10T06:50:11.936Z,23456.00
2022-08-10T06:51:12.157Z,23616.00
2022-08-10T06:52:15.121Z,23360.00
2022-08-10T06:53:13.745Z,23872.00
2022-08-10T06:54:13.029Z,23712.00
2022-08-10T06:55:13.277Z,23712.00
2022-08-10T06:56:13.562Z,23712.00
2022-08-10T06:57:18.058Z,23616.00
2022-08-10T06:58:14.114Z,23712.00
2022-08-10T06:59:22.209Z,23424.00
2022-08-10T07:00:20.058Z,23808.00
2022-08-10T07:01:15.099Z,23872.00
2022-08-10T07:02:15.349Z,23872.00
2022-08-10T07:03:15.632Z,23904.00
2022-08-10T07:04:15.872Z,23936.00
2022-08-10T07:05:16.071Z,23968.00
2022-08-10T07:06:16.342Z,23968.00
2022-08-10T07:07:16.637Z,23936.00
2022-08-10T07:08:16.884Z,23872.00
2022-08-10T07:09:17.100Z,23616.00
2022-08-10T07:10:17.389Z,23584.00
2022-08-10T07:11:17.639Z,23808.00
2022-08-10T07:12:17.881Z,24128.00
2022-08-10T07:14:15.567Z,24160.00
2022-08-10T07:14:19.404Z,24064.00
2022-08-10T07:15:18.729Z,24064.00
2022-08-10T07:16:18.955Z,24064.00
2022-08-10T07:17:19.314Z,23744.00
2022-08-10T07:18:19.564Z,23328.00
2022-08-10T07:19:19.787Z,24160.00
2022-08-10T07:20:20.154Z,24096.00
2022-08-10T07:21:20.384Z,24096.00
2022-08-10T07:23:27.115Z,24096.00
2022-08-10T07:23:55.639Z,24128.00
2022-08-10T07:24:22.188Z,24160.00
2022-08-10T07:25:21.533Z,24224.00
2022-08-10T07:26:21.757Z,24128.00
2022-08-10T07:27:22.015Z,23904.00
2022-08-10T07:28:22.241Z,22912.00
2022-08-10T07:29:52.746Z,23712.00
2022-08-10T07:30:23.798Z,23232.00
2022-08-10T07:31:55.064Z,23680.00
2022-08-10T07:32:24.865Z,23424.00
2022-08-10T07:33:23.617Z,23616.00
2022-08-10T07:34:29.176Z,24064.00
2022-08-10T07:35:25.227Z,24032.00
2022-08-10T07:36:24.493Z,23872.00
2022-08-10T07:37:24.826Z,23840.00
2022-08-10T07:38:25.049Z,23968.00
2022-08-10T07:40:03.721Z,23904.00
2022-08-10T07:40:26.590Z,23872.00
2022-08-10T07:41:25.809Z,23840.00
2022-08-10T07:42:26.046Z,23840.00
2022-08-10T07:43:26.375Z,23744.00
2022-08-10T07:44:26.508Z,23776.00
2022-08-10T07:45:26.878Z,23840.00
2022-08-10T07:46:27.118Z,23744.00
2022-08-10T07:47:53.884Z,23808.00
2022-08-10T07:48:28.690Z,23904.00
2022-08-10T07:49:27.948Z,23712.00
2022-08-10T07:50:28.238Z,23616.00
2022-08-10T07:51:28.447Z,23616.00
2022-08-10T07:52:28.752Z,22944.00
2022-08-10T07:53:28.998Z,23296.00
2022-08-10T07:54:29.204Z,23360.00
2022-08-10T07:56:02.266Z,23584.00
2022-08-10T07:56:48.413Z,23776.00
2022-08-10T07:57:33.105Z,23104.00
2022-08-10T07:58:30.463Z,22560.00
2022-08-10T07:59:30.692Z,23392.00
2022-08-10T08:00:30.943Z,22624.00
2022-08-10T08:01:31.212Z,23264.00
2022-08-10T08:02:31.523Z,23520.00
2022-08-10T08:03:31.792Z,23552.00
2022-08-10T08:04:32.037Z,23424.00
2022-08-10T08:05:57.970Z,23328.00
2022-08-10T08:06:33.632Z,23232.00
2022-08-10T08:07:32.933Z,22464.00
2022-08-10T08:08:33.213Z,23328.00
2022-08-10T08:09:33.446Z,23200.00
2022-08-10T08:10:33.664Z,23200.00
2022-08-10T08:11:33.938Z,23072.00
2022-08-10T08:12:37.176Z,22848.00
2022-08-10T08:13:34.424Z,23232.00
2022-08-10T08:14:34.695Z,23104.00
2022-08-10T08:16:20.787Z,23072.00
2022-08-10T08:16:36.215Z,23008.00
2022-08-10T08:17:36.520Z,22976.00
2022-08-10T08:18:37.085Z,22976.00
2022-08-10T08:19:45.814Z,22816.00
2022-08-10T08:20:37.312Z,22848.00
2022-08-10T08:24:06.201Z,22848.00
2022-08-10T08:24:07.376Z,22848.00
2022-08-10T08:24:10.410Z,22912.00
2022-08-10T08:24:38.879Z,22880.00
2022-08-10T08:25:37.689Z,22944.00
2022-08-10T08:26:37.953Z,22848.00
2022-08-10T08:27:38.247Z,23040.00
2022-08-10T08:28:38.448Z,22624.00
2022-08-10T08:29:38.742Z,22560.00
2022-08-10T08:30:38.963Z,22176.00
2022-08-10T08:32:01.975Z,22304.00
2022-08-10T08:32:40.551Z,23008.00
2022-08-10T08:33:41.151Z,22880.00
2022-08-10T08:34:40.103Z,22528.00
2022-08-10T08:35:40.345Z,22272.00
2022-08-10T08:36:40.592Z,21856.00
2022-08-10T08:38:31.322Z,21504.00
2022-08-10T08:38:42.052Z,21344.00
2022-08-10T08:39:41.410Z,20928.00
2022-08-10T08:40:42.664Z,20320.00
2022-08-10T08:41:41.942Z,19840.00
2022-08-10T08:42:42.232Z,19136.00
2022-08-10T08:43:42.442Z,18560.00
2022-08-10T08:44:42.718Z,18048.00
2022-08-10T08:45:58.716Z,17696.00
2022-08-10T08:46:44.261Z,17408.00
2022-08-10T08:48:03.969Z,17504.00
2022-08-10T08:48:44.905Z,17408.00
2022-08-10T08:50:08.587Z,17280.00
2022-08-10T08:50:45.558Z,17248.00
2022-08-10T08:52:09.442Z,17312.00
2022-08-10T08:52:46.204Z,17248.00
2022-08-10T08:54:02.493Z,16896.00
2022-08-10T08:54:46.856Z,16000.00
2022-08-10T08:55:56.071Z,11308.00
2022-08-10T08:56:50.310Z,7132.00
2022-08-10T08:57:49.171Z,6232.00
2022-08-10T08:58:46.987Z,5836.00
2022-08-10T08:59:47.198Z,5500.00
2022-08-10T09:00:47.537Z,5392.00
2022-08-10T09:01:47.957Z,5304.00
2022-08-10T09:02:54.613Z,5288.00
2022-08-10T09:03:49.427Z,5244.00
2022-08-10T09:04:48.707Z,5208.00
2022-08-10T09:05:59.698Z,5112.00
2022-08-10T09:06:50.427Z,5092.00
2022-08-10T09:08:00.138Z,5064.00
2022-08-10T09:08:51.027Z,5040.00
2022-08-10T09:09:50.294Z,4996.00
2022-08-10T09:10:50.687Z,4960.00
2022-08-10T09:11:50.910Z,4944.00
2022-08-10T09:12:51.162Z,4908.00
2022-08-10T09:13:51.375Z,4880.00
2022-08-10T09:14:51.731Z,4856.00
2022-08-10T09:15:51.974Z,4828.00
2022-08-10T09:16:52.166Z,4800.00
2022-08-10T09:17:52.432Z,4764.00
2022-08-10T09:18:52.653Z,4732.00
2022-08-10T09:19:53.004Z,4720.00
2022-08-10T09:20:53.222Z,4668.00
2022-08-10T09:22:06.084Z,4664.00
2022-08-10T09:22:57.634Z,4640.00
2022-08-10T09:24:04.355Z,4616.00
2022-08-10T09:24:55.529Z,4588.00
2022-08-10T09:25:54.802Z,4564.00
2022-08-10T09:26:55.151Z,4544.00
2022-08-10T09:27:55.371Z,4516.00
2022-08-10T09:29:11.565Z,4492.00
2022-08-10T09:29:56.954Z,4464.00
2022-08-10T09:31:22.152Z,4448.00
2022-08-10T09:36:13.859Z,4428.00
2022-08-10T09:36:20.905Z,4380.00
2022-08-10T09:36:21.419Z,4336.00
2022-08-10T09:36:22.293Z,4408.00
2022-08-10T09:36:23.868Z,4364.00
2022-08-10T09:36:59.013Z,4316.00
2022-08-10T09:38:01.868Z,4292.00
2022-08-10T09:38:58.496Z,4268.00
2022-08-10T09:40:56.609Z,4248.00
2022-08-10T09:41:05.007Z,4224.00
2022-08-10T09:42:00.283Z,4204.00
2022-08-10T09:43:21.928Z,4180.00
2022-08-10T09:44:00.886Z,4156.00
2022-08-10T09:45:00.165Z,4136.00
2022-08-10T09:46:00.375Z,4112.00
2022-08-10T09:47:00.726Z,4096.00
2022-08-10T09:48:03.021Z,4080.00
2022-08-10T09:49:01.189Z,4056.00
2022-08-10T09:50:04.637Z,4040.00
2022-08-10T09:52:03.086Z,4012.00
2022-08-10T09:53:02.381Z,4000.00
2022-08-10T09:54:02.599Z,3988.00
2022-08-10T09:55:02.938Z,3972.00
2022-08-10T09:56:18.046Z,3964.00
2022-08-10T09:57:43.400Z,3952.00
2022-08-10T09:58:04.924Z,3928.00
2022-08-10T09:59:45.892Z,3916.00
2022-08-10T10:00:05.485Z,3908.00
2022-08-10T10:01:04.770Z,3896.00
2022-08-10T10:02:05.071Z,3888.00
2022-08-10T10:03:05.344Z,3876.00
2022-08-10T10:04:05.505Z,3860.00
2022-08-10T10:05:05.762Z,3844.00
2022-08-10T10:06:06.131Z,3828.00
2022-08-10T10:07:06.343Z,3816.00
2022-08-10T10:08:06.703Z,3804.00
2022-08-10T10:09:10.671Z,3784.00
2022-08-10T10:10:07.264Z,3768.00
2022-08-10T10:11:07.479Z,3760.00
2022-08-10T10:12:09.898Z,3752.00
2022-08-10T10:13:08.124Z,3728.00
2022-08-10T10:14:12.325Z,3704.00
2022-08-10T10:15:08.672Z,3700.00
2022-08-10T10:16:08.874Z,3692.00
2022-08-10T10:17:09.125Z,3684.00
2022-08-10T10:18:09.487Z,3680.00
2022-08-10T10:19:09.672Z,3688.00
2022-08-10T10:20:09.911Z,3692.00
2022-08-10T10:21:10.264Z,3688.00
2022-08-10T10:22:11.575Z,3680.00
2022-08-10T10:23:10.864Z,3688.00
2022-08-10T10:24:22.383Z,3704.00
2022-08-10T10:25:20.781Z,3708.00
2022-08-10T10:26:18.443Z,3684.00
2022-08-10T10:27:16.120Z,3660.00
2022-08-10T10:28:12.316Z,3648.00
2022-08-10T10:29:37.643Z,3632.00
2022-08-10T10:30:13.849Z,3616.00
2022-08-10T10:31:16.591Z,3616.00
2022-08-10T10:32:13.327Z,3604.00
2022-08-10T10:33:14.470Z,3596.00
2022-08-10T10:34:13.874Z,3596.00
2022-08-10T10:35:14.150Z,3596.00
2022-08-10T10:36:14.363Z,3584.00
2022-08-10T10:37:14.694Z,3572.00
2022-08-10T10:38:15.065Z,3536.00
2022-08-10T10:39:15.297Z,3512.00
2022-08-10T10:40:15.624Z,3504.00
2022-08-10T10:41:16.049Z,3480.00
2022-08-10T10:42:42.251Z,3464.00
2022-08-10T10:43:17.565Z,3444.00
2022-08-10T10:44:16.839Z,3440.00
2022-08-10T10:45:17.179Z,3492.00
2022-08-10T10:46:18.024Z,3492.00
2022-08-10T10:47:18.869Z,3484.00
2022-08-10T10:48:23.802Z,3428.00
2022-08-10T10:49:19.390Z,3424.00
2022-08-10T10:50:18.661Z,3408.00
2022-08-10T10:51:18.977Z,3392.00
2022-08-10T10:52:19.330Z,3384.00
2022-08-10T10:53:19.729Z,3376.00
2022-08-10T10:54:19.971Z,3380.00
2022-08-10T10:55:20.168Z,3352.00
2022-08-10T10:56:20.498Z,3336.00
2022-08-10T10:57:20.841Z,3328.00
2022-08-10T10:58:24.183Z,3308.00
2022-08-10T10:59:54.019Z,3312.00
2022-08-10T11:00:22.742Z,3312.00
2022-08-10T11:01:22.080Z,3308.00
2022-08-10T11:02:22.331Z,3300.00
2022-08-10T11:03:22.590Z,3292.00
2022-08-10T11:04:22.914Z,3280.00
2022-08-10T11:05:23.248Z,3260.00
2022-08-10T11:06:34.236Z,3256.00
2022-08-10T11:07:32.063Z,3244.00
2022-08-10T11:08:29.142Z,3220.00
2022-08-10T11:10:08.850Z,3196.00
2022-08-10T11:10:31.794Z,3220.00
2022-08-10T11:12:00.895Z,3212.00
2022-08-10T11:12:27.614Z,3216.00
2022-08-10T11:14:25.881Z,3168.00
2022-08-10T11:14:29.215Z,3168.00
2022-08-10T11:15:26.171Z,3164.00
2022-08-10T11:16:26.421Z,3172.00
2022-08-10T11:17:26.737Z,3168.00
2022-08-10T11:18:27.014Z,3148.00
2022-08-10T11:20:01.519Z,3132.00
2022-08-10T11:20:28.523Z,3124.00
2022-08-10T11:21:27.797Z,3160.00
2022-08-10T11:22:28.146Z,3140.00
2022-08-10T11:23:28.394Z,3112.00
2022-08-10T11:24:47.037Z,3124.00
2022-08-10T11:25:29.934Z,3100.00
2022-08-10T11:26:29.173Z,3100.00
2022-08-10T11:27:29.427Z,3096.00
2022-08-10T11:28:29.769Z,3076.00
2022-08-10T11:29:30.037Z,3048.00
2022-08-10T11:30:30.270Z,3052.00
2022-08-10T11:31:37.336Z,3032.00
2022-08-10T11:32:30.818Z,3024.00
2022-08-10T11:33:32.948Z,3008.00
2022-08-10T11:34:48.931Z,2960.00
2022-08-10T11:35:34.927Z,2948.00
2022-08-10T11:36:31.987Z,2944.00
2022-08-10T11:38:31.118Z,2924.00
2022-08-10T11:38:47.254Z,2916.00
2022-08-10T11:39:33.857Z,2904.00
2022-08-10T11:40:33.085Z,2904.00
2022-08-10T11:42:07.823Z,2896.00
2022-08-10T11:42:36.355Z,2892.00
2022-08-10T11:43:33.986Z,2872.00
2022-08-10T11:44:34.202Z,2860.00
2022-08-10T11:45:34.439Z,2852.00
2022-08-10T11:46:34.662Z,2844.00
2022-08-10T11:47:35.000Z,2840.00
2022-08-10T11:48:53.208Z,2832.00
2022-08-10T11:49:36.660Z,2820.00
2022-08-10T11:50:35.913Z,2816.00
2022-08-10T11:51:36.160Z,2804.00
2022-08-10T11:52:36.665Z,2792.00
2022-08-10T11:53:39.119Z,2772.00
2022-08-10T11:54:37.085Z,2768.00
2022-08-10T11:55:37.422Z,2752.00
2022-08-10T11:56:37.753Z,2744.00
2022-08-10T11:57:53.139Z,2740.00
2022-08-10T11:58:39.435Z,2732.00
2022-08-10T11:59:38.733Z,2732.00
2022-08-10T12:00:38.952Z,2736.00
2022-08-10T12:01:39.151Z,2732.00
2022-08-10T12:02:39.753Z,2740.00
2022-08-10T12:03:39.664Z,2720.00
2022-08-10T12:04:39.893Z,2724.00
2022-08-10T12:05:51.878Z,2732.00
2022-08-10T12:06:55.140Z,2728.00
2022-08-10T12:10:02.165Z,2712.00
2022-08-10T12:10:02.791Z,2712.00
2022-08-10T12:10:11.622Z,2704.00
2022-08-10T12:10:42.609Z,2692.00
2022-08-10T12:11:41.867Z,2716.00
2022-08-10T12:12:42.208Z,2700.00
2022-08-10T12:13:58.526Z,2704.00
2022-08-10T12:14:43.829Z,2672.00
2022-08-10T12:15:43.109Z,2672.00
2022-08-10T12:16:43.328Z,2664.00
2022-08-10T12:17:43.589Z,2660.00
2022-08-10T12:18:43.910Z,2672.00
2022-08-10T12:20:02.200Z,2672.00
2022-08-10T12:20:45.431Z,2672.00
2022-08-10T12:21:44.680Z,2668.00
2022-08-10T12:22:44.899Z,2656.00
2022-08-10T12:23:45.183Z,2644.00
2022-08-10T12:24:45.436Z,2644.00
2022-08-10T12:25:55.646Z,2636.00
2022-08-10T12:26:46.934Z,2632.00